PIREP Review Wall
Flight Operations | Pakistan International Airlines Virtual © 2022

Points Distribution

Criteria Points
Good Landing
30
Distance between 0-1000NM
25
Check if Pilot has performed pushback
10
Points for performing flight from base
100
Flaps retracted before Parking
15
Engine 2 Started First
10
Engines Shutdown detected
50
Flight Length - Hours Between 1 and 2 hours
15
Non-scheduled aircraft used
-10

Points Ratings

4.6 / 5

Total Points : 245

PIREP Rating

Good, but looking at your log books, we believe you can do much better!

34 %

Efficency

10 % $

Revenue

79 %

Landing Smoothness











PIREP Route

KUMMI SAGAD LEBIB OLVIB BELKO ISDUR

PIREP Comments

  • 03/14/2021 20:36 PM

    Maurizio Fadda

    Regular takeoff runway 25L OPKC,gate departure 12,taxy M-E-H,no Sid,after takeoff turnright to KUMMI Inters.Regular landing runway ILS28L OPSI,Star BELK1C,exit runway A,taxy K-T-M,gate arrival 22.Weather:OPKC 141725Z 25005KT 5000 FU NSC 24/16 Q1013 NOSIG.................OPIS 141855Z 31014KT 7000 FEW040 14/11 Q1016 NOSIG.Fir/Uir:Karachi,Lahore.
You can add comments to a PIREP upto 48 hours after submission.

PIREP Log

smartCARS version 2.1.34.1, 2021/3/14 UTC
[16:14:56] Preflight started, flying offline
[16:14:56] Flying Airbus X A321-211 AirBlue AP-BMW
[17:13:49] Pushing back with 8513 kg of fuel
[17:15:42] Engine 2 is on
[17:16:48] Engine 1 is on
[17:18:45] Taxiing to runway
[17:24:13] Flaps set to position 2
[17:24:28] Flaps set to position 3
[17:25:36] Taking off
[17:25:59] Climbing, pitch: 8, roll: level, 159 kts
[17:26:04] Gear lever raised at 125 ft at 179 kts
[17:26:21] Flaps set to position 1 at 896 ft at 219 kts
[17:26:30] Flaps set to position 0 at 1356 ft at 240 kts
[18:50:30] Flaps set to position 1 at 3830 ft at 218 kts
[18:51:07] Flaps set to position 3 at 3179 ft at 207 kts
[18:51:32] Flaps set to position 4 at 3038 ft at 185 kts
[18:52:27] Flaps set to position 5 at 2335 ft at 158 kts
[18:55:15] Gear lever lowered at 1656 ft at 143 kts
[18:57:37] Touched down early at -121 fpm, gear level: down, flaps: 5
[18:58:11] Landed in 4583 ft, fuel: 3754 kg, weight: 67891 kg
[18:58:11] Taxiing to gate
[18:59:04] Flaps set to position 4
[18:59:26] Flaps set to position 3
[18:59:39] Flaps set to position 2
[19:00:18] Flaps set to position 0
[19:05:09] The flight may now be ended
[19:05:10] Arrived, flight duration: 01:32
[19:08:32] Engine 2 is off
[19:08:36] Engine 1 is off